Nearby METAR Reports

 

KMGY - Dayton, Ohio, USA
Distance from station: N 3mi, 5km
Updated: Wed, 23-Jan-2019 11:31pm EST
Light rain, Mist, Overcast
Light rain, Mist, Overcast
 Wind from NW
Wind: NW 9 mph , 15 km/h
Temperature: 34°F , 1°C
Wind Chill: 27°F , -3°C
Dew Point: 30°F , -1°C
Humidity: 87%
Barometer: 29.71 inHg , 1006.1 hPa
Summary: Light rain, Mist
Clouds: Overcast
Visibility: 4 miles , 6 km
Cloud details: Mostly cloudy 600 ft
Mostly cloudy 1200 ft
Overcast 2000 ft
2019/01/24 04:31 KMGY 240431Z AUTO 32008KT 4SM -RA BR BKN006 BKN012 OVC020 01/M01 A2971 RMK AO2 P0001 T00061006
KMWO - Middletown/Hook, Ohio, USA
Distance from station: W 9mi, 14km
Updated: Wed, 23-Jan-2019 11:35pm EST
Light snow, Mist, Overcast
Light snow, Mist, Overcast
 Wind from NW
Wind: NW 7 mph , 11 km/h
Temperature: 32°F , 0°C
Wind Chill: 25°F , -4°C
Dew Point: 30°F , -1°C
Humidity: 93%
Barometer: 29.76 inHg , 1007.8 hPa
Summary: Light snow, Mist
Clouds: Overcast
Visibility: 3 1/2 miles , 5.6 km
Cloud details: Overcast 800 ft
2019/01/24 04:35 KMWO 240435Z AUTO 31006KT 3 1/2SM -SN BR OVC008 00/M01 A2976 RMK AO2 T10011010
 
KHAO - Hamilton, Ohio, USA
Distance from station: SW 20mi, 32km
Updated: Wed, 23-Jan-2019 10:53pm EST
Light rain, Mist, Overcast
Light rain, Mist, Overcast
 Wind from NW
Wind: NW 12 mph , 19 km/h
Temperature: 34°F , 1°C
Wind Chill: 25°F , -4°C
Dew Point: 30°F , -1°C
Humidity: 87%
Barometer: 29.76 inHg , 1007.8 hPa
Summary: Light rain, Mist
Clouds: Overcast
Visibility: 5 miles , 8 km
Cloud details: Mostly cloudy 800 ft
Overcast 1600 ft
2019/01/24 03:53 KHAO 240353Z AUTO 31010KT 5SM -RA BR BKN008 OVC016 01/M01 A2976 RMK AO2 SLP081 P0003 T00061011
KFFO - Wright Paterson, Ohio, USA
Distance from station: NNE 21mi, 34km
Updated: Wed, 23-Jan-2019 11:43pm EST
Light freezing, Drizzle, Mist, Overcast
Light freezing, Drizzle, Mist, Overcast
 Wind from NW
Wind: NW 8 mph , 13 km/h
Temperature: 32°F , 0°C
Wind Chill: 25°F , -4°C
Dew Point: 28°F , -2°C
Humidity: 87%
Barometer: 29.72 inHg , 1006.4 hPa
Summary: Light freezing, Drizzle, Mist
Clouds: Overcast
Visibility: 5 miles , 8 km
Cloud details: Overcast 700 ft
2019/01/24 04:43 KFFO 240443Z 32007KT 5SM -FZDZ BR OVC007 00/M02 A2972 RMK AO2A SLP072
 
KDAY - Dayton, Ohio, USA
Distance from station: N 24mi, 39km
Updated: Wed, 23-Jan-2019 10:56pm EST
Light freezing, Rain, Snow, Mist, Overcast
Light freezing, Rain, Snow, Mist, Overcast
 Wind from NW
Wind: NW 13 mph , 20 km/h
Temperature: 32°F , 0°C
Wind Chill: 22°F , -6°C
Dew Point: 30°F , -1°C
Humidity: 93%
Barometer: 29.73 inHg , 1006.8 hPa
Summary: Light freezing, Rain, Snow, Mist
Clouds: Overcast
Visibility: 2 miles , 3 km
Cloud details: Mostly cloudy 400 ft
Overcast 900 ft
2019/01/24 03:56 KDAY 240356Z 31011KT 2SM -FZRASN BR BKN004 OVC009 00/M01 A2973 RMK AO2 SFC VIS 4 RAE43FZRAB43 SLP072 P0002 I1000 T00001011
KILN - Wilmington, Ohio, USA
Distance from station: ESE 25mi, 39km
Updated: Wed, 23-Jan-2019 11:42pm EST
Light rain, Overcast
Light rain, Overcast
 Wind from NNW
Wind: NNW 10 mph , 17 km/h
Temperature: 34°F , 1°C
Wind Chill: 26°F , -3°C
Dew Point: 30°F , -1°C
Humidity: 87%
Barometer: 29.70 inHg , 1005.8 hPa
Summary: Light rain
Clouds: Overcast
Visibility: 7 miles , 11 km
Cloud details: Mostly cloudy 500 ft
Overcast 3100 ft
2019/01/24 04:42 KILN 240442Z AUTO 33009KT 7SM -RA BKN005 OVC031 01/M01 A2970 RMK AO2 P0005 T00061006
 
KSGH - Springfield Muni, Ohio, USA
Distance from station: NE 29mi, 46km
Updated: Wed, 23-Jan-2019 11:36pm EST
Light snow, Mist, Overcast
Light snow, Mist, Overcast
 Wind from NW
Wind: NW 9 mph , 15 km/h
Temperature: 30°F , -1°C
Wind Chill: 22°F , -6°C
Dew Point: 30°F , -1°C
Humidity: 100%
Barometer: 29.71 inHg , 1006.1 hPa
Summary: Light snow, Mist
Clouds: Overcast
Visibility: 4 miles , 6 km
Cloud details: Overcast 700 ft
2019/01/24 04:36 KSGH 240436Z AUTO 31008KT 4SM -SN BR OVC007 M01/M01 A2971 RMK AO2 CIG 003V010 P0002
KI69 - Batavia, Ohio, USA
Distance from station: S 32mi, 52km
Updated: Wed, 23-Jan-2019 11:36pm EST
Light snow, Overcast
Light snow, Overcast
 Wind from NW
Wind: NW 8 mph , 13 km/h
Temperature: 34°F , 1°C
Wind Chill: 27°F , -3°C
Dew Point: 34°F , 1°C
Humidity: 100%
Barometer: 29.74 inHg , 1007.1 hPa
Summary: Light Snow
Clouds: Overcast
Visibility: 5 miles , 8 km
Cloud details: Overcast 500 ft
2019/01/24 04:36 KI69 240436Z AUTO 32007KT 5SM -SN OVC005 01/01 A2974 RMK AO2 P0001 T00100005
 
KLUK - Cincinnat/Lunken, Ohio, USA
Distance from station: SSW 33mi, 53km
Updated: Wed, 23-Jan-2019 11:29pm EST
Mist, Overcast
Mist, Overcast
 Wind from WNW
Wind: WNW 7 mph , 11 km/h
Temperature: 34°F , 1°C
Wind Chill: 28°F , -2°C
Dew Point: 30°F , -1°C
Humidity: 87%
Barometer: 29.77 inHg , 1008.1 hPa
Summary: Mist
Clouds: Overcast
Visibility: 4 miles , 6 km
Cloud details: Overcast 1000 ft
2019/01/24 04:29 KLUK 240429Z AUTO 29006KT 4SM UP BR OVC010 01/M01 A2977 RMK AO2 RAE20UPB20 CIG 007V013 P0001 T00111006
KCVG - Covington, Kentucky, USA
Distance from station: SSW 42mi, 67km
Updated: Wed, 23-Jan-2019 11:52pm EST
Light snow, Mist, Overcast
Light snow, Mist, Overcast
 Wind from WNW
Wind: WNW 14 mph , 22 km/h
Temperature: 32°F , 0°C
Wind Chill: 22°F , -6°C
Dew Point: 28°F , -2°C
Humidity: 87%
Barometer: 29.75 inHg , 1007.5 hPa
Summary: Light snow, Mist
Clouds: Overcast
Visibility: 2 miles , 3 km
Cloud details: Overcast 500 ft
2019/01/24 04:52 KCVG 240452Z 29012KT 2SM -SN BR OVC005 00/M02 A2975 RMK AO2 SLP076 RAE31SNB31 P0001 T00001017 4011
 
KVES - Versailles, Ohio, USA
Distance from station: NNW 47mi, 76km
Updated: Wed, 23-Jan-2019 11:30pm EST
Mist, Overcast
Mist, Overcast
 Wind from WNW
Wind: WNW 13 mph , 20 km/h, Gust: 16 mph , 26 km/h
Temperature: 30°F , -1°C
Wind Chill: 20°F , -7°C
Dew Point: 30°F , -1°C
Humidity: 100%
Barometer: 29.73 inHg , 1006.8 hPa
Summary: Mist
Clouds: Overcast
Visibility: 1 3/4 miles , 2.8 km
Cloud details: Overcast 400 ft
2019/01/24 04:30 KVES 240430Z AUTO 30011G14KT 1 3/4SM BR OVC004 M01/M01 A2973 RMK AO2